createdAt,value
2017-08-02T00:00:10.569Z,82.20
2017-08-02T00:02:38.109Z,82.20
2017-08-02T00:05:09.695Z,82.20
2017-08-02T00:07:38.306Z,82.30
2017-08-02T00:10:05.846Z,82.30
2017-08-02T00:12:34.189Z,82.30
2017-08-02T00:15:01.769Z,82.30
2017-08-02T00:17:29.311Z,82.20
2017-08-02T00:20:02.188Z,82.20
2017-08-02T00:22:29.732Z,82.30
2017-08-02T00:24:57.275Z,82.40
2017-08-02T00:27:25.170Z,82.30
2017-08-02T00:29:52.753Z,82.40
2017-08-02T00:32:20.292Z,82.50
2017-08-02T00:34:48.272Z,82.40
2017-08-02T00:37:15.813Z,82.50
2017-08-02T00:39:43.354Z,82.50
2017-08-02T00:42:11.044Z,82.40
2017-08-02T00:44:38.582Z,82.50
2017-08-02T00:47:06.165Z,82.70
2017-08-02T00:49:33.703Z,82.60
2017-08-02T00:52:01.595Z,82.60
2017-08-02T00:54:29.138Z,82.60
2017-08-02T00:56:56.672Z,82.60
2017-08-02T00:59:24.249Z,82.40
2017-08-02T01:01:51.789Z,82.20
2017-08-02T01:04:19.897Z,82.40
2017-08-02T01:06:47.522Z,82.60
2017-08-02T01:09:15.830Z,83.00
2017-08-02T01:11:43.460Z,83.00
2017-08-02T01:14:12.097Z,84.00
2017-08-02T01:16:39.634Z,83.80
2017-08-02T01:19:07.173Z,84.20
2017-08-02T01:21:36.402Z,84.60
2017-08-02T01:24:03.945Z,84.60
2017-08-02T01:26:31.942Z,84.60
2017-08-02T01:28:59.476Z,84.80
2017-08-02T01:31:28.625Z,84.80
2017-08-02T01:33:56.172Z,84.90
2017-08-02T01:36:23.711Z,85.00
2017-08-02T01:38:55.074Z,85.00
2017-08-02T01:41:22.662Z,84.90
2017-08-02T01:43:50.202Z,84.80
2017-08-02T01:46:17.762Z,84.50
2017-08-02T01:48:45.350Z,84.30
2017-08-02T01:51:12.898Z,84.20
2017-08-02T01:53:40.483Z,84.20
2017-08-02T01:56:08.794Z,84.20
2017-08-02T01:58:36.520Z,84.20
2017-08-02T02:01:04.828Z,84.40
2017-08-02T02:03:32.417Z,84.40
2017-08-02T02:06:00.221Z,84.50
2017-08-02T02:08:28.086Z,84.70
2017-08-02T02:10:55.649Z,84.70
2017-08-02T02:13:23.193Z,84.70
2017-08-02T02:15:50.926Z,84.70
2017-08-02T02:18:18.576Z,84.80
2017-08-02T02:20:46.120Z,84.80
2017-08-02T02:23:13.769Z,85.00
2017-08-02T02:25:41.502Z,85.10
2017-08-02T02:28:09.078Z,85.30
2017-08-02T02:30:37.385Z,85.10
2017-08-02T02:33:04.967Z,85.00
2017-08-02T02:35:32.508Z,85.00
2017-08-02T02:38:00.117Z,84.90
2017-08-02T02:40:27.663Z,84.90
2017-08-02T02:42:55.210Z,84.90
2017-08-02T02:45:22.795Z,84.90
2017-08-02T02:47:50.385Z,84.70
2017-08-02T02:50:18.732Z,85.00
2017-08-02T02:52:46.278Z,85.00
2017-08-02T02:55:18.666Z,85.00
2017-08-02T02:57:46.211Z,85.10
2017-08-02T03:00:13.790Z,85.20
2017-08-02T03:02:41.380Z,85.30
2017-08-02T03:05:08.921Z,85.30
2017-08-02T03:07:36.467Z,85.30
2017-08-02T03:10:04.057Z,85.40
2017-08-02T03:12:32.365Z,85.50
2017-08-02T03:14:59.945Z,85.50
2017-08-02T03:17:27.484Z,85.50
2017-08-02T03:19:55.227Z,85.50
2017-08-02T03:22:22.825Z,85.40
2017-08-02T03:24:52.640Z,86.00
2017-08-02T03:27:20.242Z,85.30
2017-08-02T03:29:48.605Z,85.20
2017-08-02T03:32:16.170Z,85.20
2017-08-02T03:34:44.118Z,85.20
2017-08-02T03:37:11.898Z,85.30
2017-08-02T03:39:39.442Z,85.30
2017-08-02T03:42:07.027Z,85.40
2017-08-02T03:44:34.574Z,85.50
2017-08-02T03:47:02.422Z,85.50
2017-08-02T03:49:29.966Z,85.50
2017-08-02T03:51:57.553Z,85.40
2017-08-02T03:54:25.134Z,85.30
2017-08-02T03:56:52.717Z,85.20
2017-08-02T03:59:21.020Z,85.20
2017-08-02T04:01:48.604Z,85.00
2017-08-02T04:04:16.155Z,85.00
2017-08-02T04:06:43.737Z,85.00
2017-08-02T04:09:11.314Z,84.80
2017-08-02T04:11:38.854Z,84.80
2017-08-02T04:14:06.437Z,84.80
2017-08-02T04:16:33.982Z,84.80
2017-08-02T04:19:01.525Z,84.80
2017-08-02T04:21:29.268Z,84.90
2017-08-02T04:23:56.806Z,84.90
2017-08-02T04:26:24.977Z,84.80
2017-08-02T04:28:53.289Z,84.70
2017-08-02T04:31:20.832Z,84.70
2017-08-02T04:33:48.445Z,84.80
2017-08-02T04:36:16.022Z,84.90
2017-08-02T04:38:43.561Z,85.10
2017-08-02T04:41:11.141Z,85.20
2017-08-02T04:43:38.682Z,85.30
2017-08-02T04:46:06.266Z,85.40
2017-08-02T04:48:33.810Z,85.70
2017-08-02T04:51:01.497Z,85.80
2017-08-02T04:53:29.816Z,86.00
2017-08-02T04:55:57.365Z,86.00
2017-08-02T04:58:24.948Z,86.20
2017-08-02T05:00:52.537Z,86.40
2017-08-02T05:03:20.089Z,86.50
2017-08-02T05:05:49.790Z,86.70
2017-08-02T05:08:17.328Z,86.90
2017-08-02T05:10:44.875Z,87.10
2017-08-02T05:13:12.778Z,87.20
2017-08-02T05:15:40.313Z,87.30
2017-08-02T05:18:07.856Z,87.40
2017-08-02T05:20:36.111Z,87.40
2017-08-02T05:23:04.422Z,87.60
2017-08-02T05:25:31.965Z,87.50
2017-08-02T05:27:59.552Z,87.50
2017-08-02T05:30:27.596Z,87.50
2017-08-02T05:32:55.146Z,87.50
2017-08-02T05:35:23.457Z,87.60
2017-08-02T05:37:51.453Z,87.60
2017-08-02T05:40:18.996Z,87.70
2017-08-02T05:42:46.546Z,87.90
2017-08-02T05:45:14.129Z,88.00
2017-08-02T05:47:43.017Z,88.10
2017-08-02T05:50:10.557Z,88.10
2017-08-02T05:52:38.136Z,88.10
2017-08-02T05:55:05.701Z,88.20
2017-08-02T05:57:33.783Z,88.20
2017-08-02T06:00:01.331Z,88.40
2017-08-02T06:02:28.873Z,88.20
2017-08-02T06:04:56.462Z,88.20
2017-08-02T06:07:24.321Z,88.20
2017-08-02T06:09:51.858Z,88.40
2017-08-02T06:12:22.010Z,88.40
2017-08-02T06:14:52.025Z,88.60
2017-08-02T06:17:19.609Z,88.80
2017-08-02T06:19:48.013Z,89.00
2017-08-02T06:22:22.244Z,89.10
2017-08-02T06:24:49.793Z,88.90
2017-08-02T06:27:18.545Z,89.10
2017-08-02T06:29:47.237Z,89.10
2017-08-02T06:32:15.186Z,89.00
2017-08-02T06:34:42.734Z,88.90
2017-08-02T06:37:10.274Z,89.10
2017-08-02T06:39:41.669Z,89.00
2017-08-02T06:42:09.217Z,89.10
2017-08-02T06:44:37.173Z,89.20
2017-08-02T06:47:04.728Z,89.00
2017-08-02T06:49:32.309Z,88.90
2017-08-02T06:51:59.912Z,88.90
2017-08-02T06:54:27.502Z,88.80
2017-08-02T06:56:55.112Z,88.60
2017-08-02T06:59:22.749Z,88.50
2017-08-02T07:01:50.301Z,88.30
2017-08-02T07:04:17.893Z,88.20
2017-08-02T07:06:46.392Z,88.10
2017-08-02T07:09:14.745Z,87.40
2017-08-02T07:11:42.288Z,87.30
2017-08-02T07:14:10.164Z,87.30
2017-08-02T07:16:37.710Z,87.20
2017-08-02T07:19:05.736Z,87.10
2017-08-02T07:21:33.325Z,86.70
2017-08-02T07:24:01.694Z,86.60
2017-08-02T07:26:29.245Z,86.40
2017-08-02T07:28:56.798Z,86.20
2017-08-02T07:31:28.102Z,86.70
2017-08-02T07:33:55.649Z,85.90
2017-08-02T07:36:23.523Z,85.80
2017-08-02T07:38:51.073Z,85.50
2017-08-02T07:41:18.618Z,85.20
2017-08-02T07:43:46.201Z,84.70
2017-08-02T07:46:13.743Z,84.30
2017-08-02T07:48:41.393Z,83.90
2017-08-02T07:51:08.932Z,83.50
2017-08-02T07:53:36.517Z,83.00
2017-08-02T07:56:04.097Z,82.60
2017-08-02T07:58:31.672Z,82.40
2017-08-02T08:01:00.023Z,81.80
2017-08-02T08:03:27.732Z,81.70
2017-08-02T08:05:59.327Z,81.60
2017-08-02T08:08:27.273Z,81.40
2017-08-02T08:10:55.584Z,81.20
2017-08-02T08:13:23.122Z,81.20
2017-08-02T08:15:51.762Z,81.20
2017-08-02T08:18:19.305Z,81.10
2017-08-02T08:20:46.844Z,80.70
2017-08-02T08:23:14.512Z,81.40
2017-08-02T08:25:42.228Z,80.80
2017-08-02T08:28:09.764Z,80.60
2017-08-02T08:30:37.338Z,80.30
2017-08-02T08:33:04.873Z,80.00
2017-08-02T08:35:32.757Z,79.60
2017-08-02T08:38:00.306Z,79.60
2017-08-02T08:40:27.850Z,79.40
2017-08-02T08:42:55.581Z,79.10
2017-08-02T08:45:24.222Z,78.40
2017-08-02T08:47:51.769Z,78.40
2017-08-02T08:50:19.316Z,78.30
2017-08-02T08:52:46.900Z,78.40
2017-08-02T08:55:14.440Z,78.60
2017-08-02T08:57:42.073Z,78.50
2017-08-02T09:00:10.379Z,78.60
2017-08-02T09:02:37.970Z,78.60
2017-08-02T09:05:05.929Z,78.50
2017-08-02T09:07:35.562Z,78.40
2017-08-02T09:10:03.122Z,78.00
2017-08-02T09:12:31.789Z,77.30
2017-08-02T09:15:00.689Z,77.10
2017-08-02T09:17:28.226Z,76.70
2017-08-02T09:19:55.777Z,76.60
2017-08-02T09:22:23.373Z,76.40
2017-08-02T09:24:51.433Z,76.20
2017-08-02T09:27:18.975Z,75.60
2017-08-02T09:29:46.514Z,75.50
2017-08-02T09:32:14.453Z,75.30
2017-08-02T09:34:42.912Z,74.90
2017-08-02T09:37:10.451Z,74.90
2017-08-02T09:39:37.993Z,74.60
2017-08-02T09:42:05.564Z,74.40
2017-08-02T09:44:33.106Z,74.40
2017-08-02T09:47:00.694Z,73.90
2017-08-02T09:49:28.242Z,72.80
2017-08-02T09:51:55.962Z,72.60
2017-08-02T09:54:24.280Z,72.80
2017-08-02T09:56:52.018Z,72.80
2017-08-02T09:59:19.654Z,71.80
2017-08-02T10:01:47.199Z,71.70
2017-08-02T10:04:15.156Z,70.90
2017-08-02T10:06:42.689Z,70.30
2017-08-02T10:09:12.076Z,70.70
2017-08-02T10:11:39.846Z,70.90
2017-08-02T10:14:07.385Z,70.30
2017-08-02T10:16:35.695Z,68.70
2017-08-02T10:19:08.113Z,68.70
2017-08-02T10:21:35.697Z,68.50
2017-08-02T10:24:04.004Z,68.10
2017-08-02T10:26:31.545Z,68.00
2017-08-02T10:29:00.029Z,68.60
2017-08-02T10:31:28.335Z,67.30
2017-08-02T10:33:55.913Z,67.20
2017-08-02T10:36:23.898Z,66.10
2017-08-02T10:38:51.436Z,65.30
2017-08-02T10:41:18.976Z,64.40
2017-08-02T10:43:50.551Z,63.30
2017-08-02T10:46:18.099Z,62.10
2017-08-02T10:48:45.637Z,61.40
2017-08-02T10:51:13.989Z,60.80
2017-08-02T10:53:41.524Z,60.80
2017-08-02T10:56:09.052Z,60.50
2017-08-02T10:58:36.633Z,59.90
2017-08-02T11:01:04.177Z,60.00
2017-08-02T11:03:31.820Z,59.60
2017-08-02T11:05:59.357Z,59.40
2017-08-02T11:08:26.972Z,59.20
2017-08-02T11:10:55.951Z,58.60
2017-08-02T11:13:23.489Z,58.50
2017-08-02T11:15:51.847Z,58.50
2017-08-02T11:18:19.390Z,58.50
2017-08-02T11:20:47.021Z,58.20
2017-08-02T11:23:14.589Z,58.00
2017-08-02T11:25:42.578Z,58.00
2017-08-02T11:28:10.117Z,57.90
2017-08-02T11:30:38.494Z,58.00
2017-08-02T11:33:06.072Z,58.00
2017-08-02T11:35:33.609Z,58.10
2017-08-02T11:38:06.846Z,57.90
2017-08-02T11:40:34.389Z,57.60
2017-08-02T11:43:01.928Z,57.50
2017-08-02T11:45:29.507Z,57.30
2017-08-02T11:47:57.365Z,56.80
2017-08-02T11:50:24.901Z,55.80
2017-08-02T11:52:52.439Z,55.80
2017-08-02T11:55:20.912Z,55.10
2017-08-02T11:57:49.246Z,55.20
2017-08-02T12:00:16.813Z,55.10
2017-08-02T12:02:44.345Z,55.40
2017-08-02T12:05:11.921Z,55.60
2017-08-02T12:07:39.453Z,55.70
2017-08-02T12:10:07.021Z,55.60
2017-08-02T12:12:34.773Z,55.40
2017-08-02T12:15:07.432Z,55.40
2017-08-02T12:17:35.734Z,56.30
2017-08-02T12:20:03.310Z,55.70
2017-08-02T12:22:30.838Z,55.80
2017-08-02T12:24:59.177Z,56.40
2017-08-02T12:27:26.718Z,56.40
2017-08-02T12:29:54.602Z,56.60
2017-08-02T12:32:22.137Z,56.40
2017-08-02T12:34:49.715Z,56.00
2017-08-02T12:37:22.436Z,55.60
2017-08-02T12:39:50.173Z,55.50
2017-08-02T12:42:17.712Z,55.50
2017-08-02T12:44:45.240Z,55.50
2017-08-02T12:47:12.858Z,55.60
2017-08-02T12:49:40.394Z,55.70
2017-08-02T12:52:07.920Z,55.60
2017-08-02T12:54:36.365Z,55.40
2017-08-02T12:57:03.897Z,55.20
2017-08-02T12:59:31.730Z,55.10
2017-08-02T13:01:59.268Z,55.20
2017-08-02T13:04:26.798Z,55.10
2017-08-02T13:06:54.538Z,54.80
2017-08-02T13:09:22.234Z,54.40
2017-08-02T13:11:49.770Z,54.10
2017-08-02T13:14:17.305Z,54.00
2017-08-02T13:16:45.007Z,53.80
2017-08-02T13:19:12.562Z,53.80
2017-08-02T13:21:40.140Z,53.80
2017-08-02T13:24:07.681Z,53.60
2017-08-02T13:26:35.973Z,53.40
2017-08-02T13:29:03.510Z,53.40
2017-08-02T13:31:31.050Z,53.40
2017-08-02T13:33:58.685Z,53.40
2017-08-02T13:36:27.048Z,53.50
2017-08-02T13:38:54.658Z,53.50
2017-08-02T13:41:22.186Z,53.60
2017-08-02T13:43:50.676Z,53.20
2017-08-02T13:46:19.030Z,53.30
2017-08-02T13:48:46.587Z,53.20
2017-08-02T13:51:19.028Z,53.40
2017-08-02T13:53:46.582Z,53.60
2017-08-02T13:56:14.165Z,53.50
2017-08-02T13:58:41.738Z,53.80
2017-08-02T14:01:09.312Z,53.80
2017-08-02T14:03:36.842Z,53.50
2017-08-02T14:06:04.798Z,53.50
2017-08-02T14:08:32.329Z,53.40
2017-08-02T14:10:59.927Z,53.10
2017-08-02T14:13:29.115Z,53.10
2017-08-02T14:15:59.363Z,53.10
2017-08-02T14:18:26.894Z,53.20
2017-08-02T14:20:54.453Z,53.10
2017-08-02T14:23:22.165Z,53.10
2017-08-02T14:25:49.842Z,53.10
2017-08-02T14:28:18.137Z,53.40
2017-08-02T14:30:45.680Z,53.40
2017-08-02T14:33:14.446Z,54.30
2017-08-02T14:35:41.988Z,54.30
2017-08-02T14:38:09.548Z,54.50
2017-08-02T14:40:37.620Z,54.30
2017-08-02T14:43:05.146Z,54.40
2017-08-02T14:45:32.676Z,54.10
2017-08-02T14:48:01.017Z,54.00
2017-08-02T14:50:28.584Z,53.70
2017-08-02T14:52:56.548Z,54.00
2017-08-02T14:55:24.073Z,54.20
2017-08-02T14:57:51.602Z,54.40
2017-08-02T15:00:20.057Z,54.80
2017-08-02T15:02:47.602Z,54.70
2017-08-02T15:05:15.328Z,55.20
2017-08-02T15:07:42.860Z,55.50
2017-08-02T15:10:10.433Z,55.70
2017-08-02T15:12:38.742Z,55.60
2017-08-02T15:15:06.426Z,55.50
2017-08-02T15:17:33.977Z,55.40
2017-08-02T15:20:01.505Z,55.40
2017-08-02T15:22:29.184Z,56.20
2017-08-02T15:24:56.719Z,56.60
2017-08-02T15:27:24.949Z,56.90
2017-08-02T15:29:52.481Z,57.30
2017-08-02T15:32:20.022Z,57.70
2017-08-02T15:34:48.385Z,58.10
2017-08-02T15:37:16.691Z,58.40
2017-08-02T15:39:44.257Z,58.70
2017-08-02T15:42:12.252Z,58.70
2017-08-02T15:44:39.790Z,58.80
2017-08-02T15:47:07.386Z,59.20
2017-08-02T15:49:34.922Z,60.00
2017-08-02T15:52:02.770Z,61.30
2017-08-02T15:54:30.385Z,61.70
2017-08-02T15:56:57.994Z,62.10
2017-08-02T15:59:25.728Z,62.30
2017-08-02T16:01:54.086Z,63.40
2017-08-02T16:04:21.657Z,62.80
2017-08-02T16:06:49.965Z,62.50
2017-08-02T16:09:18.309Z,63.20
2017-08-02T16:11:45.848Z,63.20
2017-08-02T16:14:13.421Z,63.20
2017-08-02T16:16:40.976Z,63.70
2017-08-02T16:19:13.858Z,64.20
2017-08-02T16:21:41.398Z,64.60
2017-08-02T16:24:08.961Z,65.10
2017-08-02T16:26:36.546Z,65.20
2017-08-02T16:29:04.107Z,65.10
2017-08-02T16:31:31.780Z,65.20
2017-08-02T16:33:59.319Z,65.30
2017-08-02T16:36:27.500Z,65.50
2017-08-02T16:38:55.039Z,65.70
2017-08-02T16:41:22.573Z,65.50
2017-08-02T16:43:50.744Z,66.00
2017-08-02T16:46:18.321Z,66.20
2017-08-02T16:48:45.869Z,65.90
2017-08-02T16:51:13.454Z,66.00
2017-08-02T16:53:41.534Z,66.50
2017-08-02T16:56:09.065Z,66.70
2017-08-02T16:58:36.597Z,66.60
2017-08-02T17:01:05.206Z,66.50
2017-08-02T17:03:32.736Z,66.30
2017-08-02T17:06:00.273Z,66.40
2017-08-02T17:08:28.429Z,66.70
2017-08-02T17:10:55.970Z,67.20
2017-08-02T17:13:23.546Z,67.00
2017-08-02T17:15:51.417Z,66.80
2017-08-02T17:18:18.954Z,66.90
2017-08-02T17:20:46.509Z,67.30
2017-08-02T17:23:14.336Z,67.30
2017-08-02T17:25:41.934Z,67.40
2017-08-02T17:28:09.474Z,67.60
2017-08-02T17:30:38.117Z,67.90
2017-08-02T17:33:05.663Z,67.90
2017-08-02T17:35:33.193Z,68.10
2017-08-02T17:38:00.940Z,68.60
2017-08-02T17:40:28.486Z,69.00
2017-08-02T17:42:56.337Z,69.10
2017-08-02T17:45:23.909Z,69.40
2017-08-02T17:47:51.450Z,69.80
2017-08-02T17:50:19.297Z,69.90
2017-08-02T17:52:46.841Z,70.00
2017-08-02T17:55:14.381Z,70.20
2017-08-02T17:57:42.767Z,70.60
2017-08-02T18:00:10.377Z,70.60
2017-08-02T18:02:37.922Z,71.00
2017-08-02T18:05:10.509Z,71.40
2017-08-02T18:07:38.234Z,71.60
2017-08-02T18:10:05.919Z,72.00
2017-08-02T18:12:33.462Z,72.50
2017-08-02T18:15:01.417Z,73.00
2017-08-02T18:17:29.010Z,73.50
2017-08-02T18:19:56.705Z,73.90
2017-08-02T18:22:24.263Z,74.40
2017-08-02T18:24:51.808Z,74.90
2017-08-02T18:27:19.449Z,75.20
2017-08-02T18:29:47.288Z,75.70
2017-08-02T18:32:15.601Z,76.00
2017-08-02T18:34:43.193Z,76.00
2017-08-02T18:37:10.787Z,76.50
2017-08-02T18:39:39.090Z,77.10
2017-08-02T18:42:07.215Z,77.00
2017-08-02T18:44:34.782Z,77.50
2017-08-02T18:47:02.346Z,77.60
2017-08-02T18:49:29.929Z,78.00
2017-08-02T18:51:58.271Z,78.60
2017-08-02T18:54:25.818Z,78.50
2017-08-02T18:56:53.393Z,79.00
2017-08-02T18:59:20.925Z,79.40
2017-08-02T19:01:48.577Z,79.50
2017-08-02T19:04:16.569Z,79.50
2017-08-02T19:06:44.404Z,79.60
2017-08-02T19:09:11.949Z,79.90
2017-08-02T19:11:39.536Z,80.40
2017-08-02T19:14:07.115Z,80.90
2017-08-02T19:16:34.658Z,80.80
2017-08-02T19:19:03.673Z,80.80
2017-08-02T19:21:31.259Z,80.80
2017-08-02T19:23:58.833Z,80.80
2017-08-02T19:26:26.382Z,80.70
2017-08-02T19:28:54.742Z,80.60
2017-08-02T19:31:22.549Z,80.60
2017-08-02T19:33:50.128Z,80.60
2017-08-02T19:36:17.667Z,80.70
2017-08-02T19:38:45.793Z,80.70
2017-08-02T19:41:13.329Z,80.90
2017-08-02T19:43:40.865Z,81.10
2017-08-02T19:46:08.505Z,81.20
2017-08-02T19:48:36.812Z,82.40
2017-08-02T19:51:04.393Z,81.80
2017-08-02T19:53:31.930Z,82.00
2017-08-02T19:56:03.524Z,82.40
2017-08-02T19:58:31.057Z,82.60
2017-08-02T20:00:58.589Z,82.70
2017-08-02T20:03:26.177Z,82.90
2017-08-02T20:05:54.269Z,83.00
2017-08-02T20:08:21.810Z,83.20
2017-08-02T20:10:49.433Z,83.60
2017-08-02T20:13:16.972Z,83.80
2017-08-02T20:15:47.290Z,84.10
2017-08-02T20:18:14.842Z,84.20
2017-08-02T20:20:42.877Z,84.40
2017-08-02T20:23:10.509Z,84.50
2017-08-02T20:25:38.037Z,84.70
2017-08-02T20:28:09.284Z,84.90
2017-08-02T20:30:36.830Z,85.00
2017-08-02T20:33:04.773Z,85.10
2017-08-02T20:35:32.322Z,85.40
2017-08-02T20:37:59.874Z,85.60
2017-08-02T20:40:28.224Z,85.70
2017-08-02T20:42:55.805Z,85.60
2017-08-02T20:45:24.122Z,86.70
2017-08-02T20:47:53.545Z,86.10
2017-08-02T20:50:21.085Z,86.00
2017-08-02T20:52:48.682Z,86.20
2017-08-02T20:55:16.222Z,86.40
2017-08-02T20:57:44.110Z,86.60
2017-08-02T21:00:11.656Z,86.70
2017-08-02T21:02:39.205Z,86.80
2017-08-02T21:05:07.297Z,87.00
2017-08-02T21:07:36.349Z,87.20
2017-08-02T21:10:03.893Z,87.20
2017-08-02T21:12:32.238Z,87.50
2017-08-02T21:15:00.098Z,87.50
2017-08-02T21:17:27.649Z,87.60
2017-08-02T21:19:55.198Z,87.60
2017-08-02T21:22:22.980Z,87.60
2017-08-02T21:24:50.569Z,87.50
2017-08-02T21:27:19.334Z,87.80
2017-08-02T21:29:46.889Z,87.70
2017-08-02T21:32:14.432Z,87.80
2017-08-02T21:34:42.017Z,87.90
2017-08-02T21:37:09.564Z,87.80
2017-08-02T21:39:42.666Z,88.70
2017-08-02T21:42:10.217Z,87.90
2017-08-02T21:44:37.761Z,88.00
2017-08-02T21:47:05.346Z,88.00
2017-08-02T21:49:32.997Z,88.30
2017-08-02T21:52:00.541Z,88.30
2017-08-02T21:54:33.028Z,88.30
2017-08-02T21:57:00.579Z,88.30
2017-08-02T21:59:28.168Z,88.40
2017-08-02T22:01:55.713Z,88.50
2017-08-02T22:04:28.194Z,88.50
2017-08-02T22:06:55.746Z,88.50
2017-08-02T22:09:23.820Z,88.60
2017-08-02T22:11:51.373Z,88.80
2017-08-02T22:14:18.921Z,88.80
2017-08-02T22:16:46.585Z,88.90
2017-08-02T22:19:14.128Z,88.90
2017-08-02T22:21:41.729Z,89.00
2017-08-02T22:24:09.276Z,89.10
2017-08-02T22:26:36.862Z,89.20
2017-08-02T22:29:04.417Z,89.20
2017-08-02T22:31:31.966Z,89.30
2017-08-02T22:33:59.892Z,89.60
2017-08-02T22:36:27.443Z,89.70
2017-08-02T22:38:55.759Z,89.90
2017-08-02T22:41:23.349Z,89.90
2017-08-02T22:43:50.892Z,89.90
2017-08-02T22:46:18.972Z,90.00
2017-08-02T22:48:46.523Z,90.00
2017-08-02T22:51:14.078Z,90.00
2017-08-02T22:53:42.417Z,90.00
2017-08-02T22:56:10.007Z,90.10
2017-08-02T22:58:37.553Z,90.10
2017-08-02T23:01:05.145Z,90.10
2017-08-02T23:03:36.569Z,90.10
2017-08-02T23:06:04.154Z,90.20
2017-08-02T23:08:31.702Z,90.30
2017-08-02T23:10:59.807Z,90.30
2017-08-02T23:13:27.358Z,90.30
2017-08-02T23:15:54.909Z,90.30
2017-08-02T23:18:23.702Z,90.30
2017-08-02T23:20:51.247Z,90.40
2017-08-02T23:23:18.828Z,90.30
2017-08-02T23:25:46.373Z,90.30
2017-08-02T23:28:14.109Z,90.30
2017-08-02T23:30:41.661Z,90.30
2017-08-02T23:33:09.265Z,90.30
2017-08-02T23:35:36.820Z,90.30
2017-08-02T23:38:04.526Z,90.30
2017-08-02T23:40:32.841Z,90.70
2017-08-02T23:43:00.391Z,90.40
2017-08-02T23:45:28.918Z,90.40
2017-08-02T23:47:56.466Z,90.50
2017-08-02T23:50:24.009Z,90.50
2017-08-02T23:52:51.598Z,90.50
2017-08-02T23:55:19.342Z,90.50
2017-08-02T23:57:46.898Z,90.50
